Time;durP1;ratioP1;P1;durP2;ratioP2;P2;SDS_P1;SDS_P2;PMS_P1;PMS_P2;Temp;Humidity;BMP_temperature;BMP_pressure;BME280_temperature;BME280_humidity;BME280_pressure;Samples;Min_cycle;Max_cycle;Signal;HPM_P1;HPM_P2
2022/07/28 00:01:59;;;;;;;0.10;0.10;;;14.30;99.90;;;;;;5047480;28;20080;-68
2022/07/28 00:04:25;;;;;;;0.13;0.13;;;14.30;99.90;;;;;;5034746;28;20053;-68
2022/07/28 00:06:51;;;;;;;0.10;0.10;;;14.40;99.90;;;;;;5045500;28;20388;-68
2022/07/28 00:09:16;;;;;;;0.00;0.00;;;14.30;99.90;;;;;;5039795;28;20041;-68
2022/07/28 00:11:42;;;;;;;0.00;0.00;;;14.40;99.90;;;;;;5038360;28;20053;-68
2022/07/28 00:14:09;;;;;;;0.10;0.10;;;14.40;99.90;;;;;;5047241;28;20503;-68
2022/07/28 00:16:35;;;;;;;0.10;0.10;;;14.40;99.90;;;;;;5037474;28;20576;-68
2022/07/28 00:19:00;;;;;;;0.35;0.35;;;14.20;99.90;;;;;;5030844;28;20034;-68
2022/07/28 00:21:26;;;;;;;0.28;0.28;;;14.20;99.90;;;;;;5039893;28;20045;-68
2022/07/28 00:23:52;;;;;;;0.20;0.20;;;14.10;99.90;;;;;;5033663;28;20053;-68
2022/07/28 00:26:17;;;;;;;0.13;0.13;;;14.10;99.90;;;;;;5031741;28;20041;-68
2022/07/28 00:28:43;;;;;;;0.00;0.00;;;14.10;99.90;;;;;;5049515;28;20477;-68
2022/07/28 00:31:08;;;;;;;0.10;0.10;;;14.20;99.90;;;;;;5046975;28;20049;-68
2022/07/28 00:33:34;;;;;;;0.10;0.10;;;14.10;99.90;;;;;;5047726;28;20052;-68
2022/07/28 00:35:59;;;;;;;0.32;0.32;;;14.20;99.90;;;;;;5036686;28;20084;-68
2022/07/28 00:38:25;;;;;;;0.10;0.10;;;14.10;99.90;;;;;;5038328;28;20060;-68
2022/07/28 00:43:34;;;;;;;0.22;0.22;;;14.20;99.90;;;;;;5038392;28;20049;-68
2022/07/28 00:46:00;;;;;;;0.28;0.28;;;14.20;99.90;;;;;;5040078;28;20064;-68
2022/07/28 00:48:26;;;;;;;0.05;0.05;;;14.20;99.90;;;;;;5037707;28;20048;-68
2022/07/28 00:50:51;;;;;;;0.08;0.08;;;14.20;99.90;;;;;;5037300;28;20116;-68
2022/07/28 00:53:17;;;;;;;0.10;0.10;;;14.20;99.90;;;;;;5038370;28;20045;-68
2022/07/28 00:55:43;;;;;;;0.10;0.10;;;14.20;99.90;;;;;;5034444;28;20140;-68
2022/07/28 00:58:09;;;;;;;0.10;0.10;;;14.20;99.90;;;;;;5028498;28;20132;-68
2022/07/28 01:00:34;;;;;;;1.85;0.57;;;14.10;99.90;;;;;;5040891;28;20123;-68
2022/07/28 01:03:01;;;;;;;0.00;0.00;;;14.10;99.90;;;;;;5046165;28;20107;-68
2022/07/28 01:05:53;;;;;;;0.10;0.10;;;14.10;99.90;;;;;;5045985;28;20086;-68
2022/07/28 01:09:03;;;;;;;0.10;0.10;;;14.10;99.90;;;;;;5035508;28;20052;-68
2022/07/28 01:11:41;;;;;;;1.25;0.65;;;14.10;99.90;;;;;;5027332;28;20049;-68
2022/07/28 01:14:20;;;;;;;0.10;0.10;;;14.10;99.90;;;;;;5062950;28;20061;-68
2022/07/28 01:17:07;;;;;;;0.10;0.10;;;14.00;99.90;;;;;;5031868;28;20049;-68
2022/07/28 01:19:51;;;;;;;0.00;0.00;;;14.00;99.90;;;;;;5039741;28;20041;-68
2022/07/28 01:22:21;;;;;;;0.20;0.20;;;14.00;99.90;;;;;;5046171;28;20045;-68
2022/07/28 01:25:04;;;;;;;0.10;0.10;;;14.00;99.90;;;;;;5033543;28;20389;-68
2022/07/28 01:27:50;;;;;;;0.00;0.00;;;14.00;99.90;;;;;;5038841;28;20052;-68
2022/07/28 01:30:33;;;;;;;0.10;0.10;;;14.00;99.90;;;;;;5037695;28;20048;-68
2022/07/28 01:33:03;;;;;;;0.35;0.35;;;14.10;99.90;;;;;;5037936;28;20175;-68
2022/07/28 01:35:39;;;;;;;0.00;0.00;;;14.10;99.90;;;;;;5046664;28;20415;-68
2022/07/28 01:38:07;;;;;;;0.10;0.10;;;14.10;99.90;;;;;;5044932;28;20060;-68
2022/07/28 01:40:35;;;;;;;0.10;0.10;;;14.00;99.90;;;;;;5037914;28;20049;-68
2022/07/28 01:43:04;;;;;;;0.10;0.10;;;14.00;99.90;;;;;;5042959;28;20045;-68
2022/07/28 01:45:32;;;;;;;0.08;0.08;;;14.00;99.90;;;;;;5038875;28;20049;-66
2022/07/28 01:47:59;;;;;;;0.10;0.10;;;14.00;99.90;;;;;;5027524;28;20566;-68
2022/07/28 01:50:27;;;;;;;0.35;0.35;;;14.00;99.90;;;;;;5035553;28;20492;-68
2022/07/28 01:52:54;;;;;;;0.10;0.10;;;13.90;99.90;;;;;;5046161;28;20110;-68
2022/07/28 01:55:22;;;;;;;0.00;0.00;;;13.90;99.90;;;;;;5061874;28;20124;-68
2022/07/28 01:57:49;;;;;;;0.00;0.00;;;13.90;99.90;;;;;;5041328;28;20041;-68
2022/07/28 02:00:16;;;;;;;0.10;0.10;;;13.90;99.90;;;;;;5037345;28;20053;-68
2022/07/28 02:02:44;;;;;;;0.10;0.10;;;13.90;99.90;;;;;;5045500;28;20036;-68
2022/07/28 02:05:13;;;;;;;0.00;0.00;;;13.80;99.90;;;;;;5043125;28;20592;-68
2022/07/28 02:07:41;;;;;;;0.08;0.08;;;13.90;99.90;;;;;;5040910;28;20045;-68
2022/07/28 02:10:10;;;;;;;0.10;0.10;;;13.80;99.90;;;;;;5048621;28;20041;-68
2022/07/28 02:12:38;;;;;;;0.10;0.10;;;13.80;99.90;;;;;;5057706;28;20044;-68
2022/07/28 02:15:10;;;;;;;0.10;0.10;;;13.80;99.90;;;;;;5038936;28;20037;-69
2022/07/28 02:17:36;;;;;;;0.03;0.03;;;13.80;99.90;;;;;;5050100;28;20052;-67
2022/07/28 02:20:04;;;;;;;0.00;0.00;;;13.70;99.90;;;;;;5039521;28;20052;-67
2022/07/28 02:22:31;;;;;;;0.00;0.00;;;13.70;99.90;;;;;;5046533;28;20476;-67
2022/07/28 02:24:57;;;;;;;0.20;0.20;;;13.70;99.90;;;;;;5042373;28;20053;-67
2022/07/28 02:27:33;;;;;;;0.10;0.10;;;13.70;99.90;;;;;;5045859;28;20435;-67
2022/07/28 02:30:07;;;;;;;0.10;0.10;;;13.60;99.90;;;;;;5049034;28;20053;-67
2022/07/28 02:32:55;;;;;;;0.10;0.10;;;13.60;99.90;;;;;;5034206;28;20049;-67
2022/07/28 02:35:37;;;;;;;0.38;0.38;;;13.60;99.90;;;;;;5045508;28;20668;-67
2022/07/28 02:38:09;;;;;;;0.10;0.10;;;13.60;99.90;;;;;;5058311;28;20914;-67
2022/07/28 02:40:37;;;;;;;0.40;0.40;;;13.60;99.90;;;;;;5036508;28;20053;-67
2022/07/28 02:43:08;;;;;;;0.10;0.10;;;13.60;99.90;;;;;;5048912;28;20514;-67
2022/07/28 02:45:38;;;;;;;0.55;0.45;;;13.60;99.90;;;;;;5034397;28;20049;-67
2022/07/28 02:48:09;;;;;;;0.00;0.00;;;13.50;99.90;;;;;;5047412;28;20132;-67
2022/07/28 02:50:35;;;;;;;0.10;0.10;;;13.60;99.90;;;;;;5047483;28;20040;-67
2022/07/28 02:53:03;;;;;;;0.10;0.10;;;13.50;99.90;;;;;;5049638;28;20125;-67
2022/07/28 02:55:30;;;;;;;0.20;0.20;;;13.50;99.90;;;;;;5038270;28;20049;-67
2022/07/28 02:57:57;;;;;;;0.32;0.32;;;13.60;99.90;;;;;;5043585;28;20057;-67
2022/07/28 03:00:24;;;;;;;0.30;0.30;;;13.60;99.90;;;;;;5049121;28;20061;-67
2022/07/28 03:02:51;;;;;;;0.03;0.03;;;13.50;99.90;;;;;;5048235;28;20051;-67
2022/07/28 03:05:17;;;;;;;0.00;0.00;;;13.50;99.90;;;;;;5029369;28;20708;-67
2022/07/28 03:07:43;;;;;;;0.15;0.15;;;13.50;99.90;;;;;;5044793;28;20139;-67
2022/07/28 03:10:18;;;;;;;0.10;0.10;;;13.50;99.90;;;;;;5041475;28;20123;-67
2022/07/28 03:12:43;;;;;;;0.05;0.05;;;13.50;99.90;;;;;;5042048;28;20051;-67
2022/07/28 03:15:09;;;;;;;0.03;0.03;;;13.40;99.90;;;;;;5048796;28;20045;-67
2022/07/28 03:17:35;;;;;;;0.10;0.10;;;13.40;99.90;;;;;;5045423;28;20120;-67
2022/07/28 03:20:00;;;;;;;0.30;0.30;;;13.40;99.90;;;;;;5030746;28;20405;-68
2022/07/28 03:22:26;;;;;;;0.47;0.45;;;13.40;99.90;;;;;;5046892;28;20045;-67
2022/07/28 03:24:55;;;;;;;0.65;0.52;;;13.40;99.90;;;;;;5060620;28;20124;-67
2022/07/28 03:27:27;;;;;;;0.38;0.38;;;13.30;99.90;;;;;;5044578;28;20094;-67
2022/07/28 03:29:57;;;;;;;0.10;0.10;;;13.40;99.90;;;;;;5044736;28;20048;-67
2022/07/28 03:32:25;;;;;;;0.10;0.10;;;13.30;99.90;;;;;;5062922;28;20037;-67
2022/07/28 03:34:51;;;;;;;0.10;0.10;;;13.30;99.90;;;;;;5048732;28;20075;-67
2022/07/28 03:37:23;;;;;;;0.20;0.20;;;13.30;99.90;;;;;;5036098;28;20490;-67
2022/07/28 03:39:50;;;;;;;0.00;0.00;;;13.20;99.90;;;;;;5031562;28;20037;-67
2022/07/28 03:42:20;;;;;;;0.20;0.20;;;13.30;99.90;;;;;;5040767;28;20079;-67
2022/07/28 03:44:46;;;;;;;5.47;1.75;;;13.30;99.90;;;;;;5032322;28;20133;-67
2022/07/28 03:47:13;;;;;;;0.10;0.10;;;13.30;99.90;;;;;;5041640;28;20040;-67
2022/07/28 03:49:39;;;;;;;1.17;0.60;;;13.30;99.90;;;;;;5034482;28;20156;-67
2022/07/28 03:52:05;;;;;;;0.43;0.30;;;13.20;99.90;;;;;;5047934;28;20162;-67
2022/07/28 03:54:31;;;;;;;0.20;0.20;;;13.30;99.90;;;;;;5041739;28;20122;-67
2022/07/28 03:56:56;;;;;;;0.00;0.00;;;13.30;99.90;;;;;;5031020;28;20520;-67
2022/07/28 03:59:22;;;;;;;0.40;0.40;;;13.30;99.90;;;;;;5045589;28;20618;-67
2022/07/28 04:01:48;;;;;;;0.10;0.10;;;13.30;99.90;;;;;;5046481;28;20059;-67
2022/07/28 04:04:13;;;;;;;0.10;0.10;;;13.30;99.90;;;;;;5047866;28;20088;-67
2022/07/28 04:06:39;;;;;;;0.00;0.00;;;13.30;99.90;;;;;;5046743;28;20393;-67
2022/07/28 04:09:04;;;;;;;0.47;0.47;;;13.20;99.90;;;;;;5045325;28;20060;-67
2022/07/28 04:11:30;;;;;;;0.10;0.10;;;13.30;99.90;;;;;;5043076;28;20044;-67
2022/07/28 04:13:56;;;;;;;0.10;0.10;;;13.30;99.90;;;;;;5035346;28;20053;-67
2022/07/28 04:16:22;;;;;;;0.28;0.28;;;13.20;99.90;;;;;;5046938;28;20037;-67
2022/07/28 04:18:47;;;;;;;0.00;0.00;;;13.30;99.90;;;;;;5047519;28;20656;-67
2022/07/28 04:21:13;;;;;;;0.10;0.10;;;13.30;99.90;;;;;;5038573;28;20064;-67
2022/07/28 04:23:39;;;;;;;0.20;0.20;;;13.20;99.90;;;;;;5033339;28;20053;-67
2022/07/28 04:26:04;;;;;;;0.05;0.05;;;13.20;99.90;;;;;;5043377;28;20044;-67
2022/07/28 04:28:30;;;;;;;0.38;0.17;;;13.20;99.90;;;;;;5043240;28;20485;-67
2022/07/28 04:30:55;;;;;;;0.10;0.10;;;13.20;99.90;;;;;;5036636;28;20053;-67
2022/07/28 04:33:21;;;;;;;0.10;0.10;;;13.20;99.90;;;;;;5041975;28;20045;-67
2022/07/28 04:35:46;;;;;;;0.30;0.30;;;13.20;99.90;;;;;;5030872;28;20041;-67
2022/07/28 04:38:16;;;;;;;0.00;0.00;;;13.10;99.90;;;;;;5031714;28;20477;-66
2022/07/28 04:40:42;;;;;;;0.20;0.20;;;13.20;99.90;;;;;;5039288;28;20040;-67
2022/07/28 04:43:09;;;;;;;0.10;0.10;;;13.20;99.90;;;;;;5039353;28;20052;-67
2022/07/28 04:45:35;;;;;;;0.00;0.00;;;13.20;99.90;;;;;;5035313;28;20061;-67
2022/07/28 04:48:01;;;;;;;0.38;0.32;;;13.10;99.90;;;;;;5035670;28;20049;-67
2022/07/28 04:50:26;;;;;;;0.40;0.40;;;13.10;99.90;;;;;;5031628;28;20186;-67
2022/07/28 04:52:53;;;;;;;0.08;0.08;;;13.00;99.90;;;;;;5057171;28;20440;-67
2022/07/28 04:55:18;;;;;;;0.15;0.15;;;13.10;99.90;;;;;;5042303;28;20034;-66
2022/07/28 04:57:44;;;;;;;0.10;0.10;;;13.20;99.90;;;;;;5033459;28;20076;-67
2022/07/28 05:00:13;;;;;;;0.10;0.10;;;13.30;99.90;;;;;;5032136;28;20129;-67
2022/07/28 05:02:43;;;;;;;0.10;0.10;;;13.30;99.90;;;;;;5042932;28;20052;-67
2022/07/28 05:05:10;;;;;;;0.10;0.10;;;13.30;99.90;;;;;;5045881;28;20512;-66
2022/07/28 05:07:37;;;;;;;0.20;0.20;;;13.40;99.90;;;;;;5047553;28;20420;-66
2022/07/28 05:10:04;;;;;;;0.08;0.08;;;13.40;99.90;;;;;;5050693;28;20382;-67
2022/07/28 05:12:29;;;;;;;0.65;0.63;;;13.50;99.90;;;;;;5046517;28;20064;-67
2022/07/28 05:14:55;;;;;;;0.10;0.10;;;13.60;99.90;;;;;;5027622;28;20072;-67
2022/07/28 05:17:20;;;;;;;0.20;0.20;;;13.70;99.90;;;;;;5035404;28;20049;-67
2022/07/28 05:19:46;;;;;;;0.10;0.10;;;13.80;99.90;;;;;;5045688;28;20107;-67
2022/07/28 05:22:12;;;;;;;0.55;0.55;;;14.00;99.90;;;;;;5035409;28;20053;-67
2022/07/28 05:24:37;;;;;;;0.20;0.20;;;14.10;99.90;;;;;;5038357;28;20037;-67
2022/07/28 05:27:03;;;;;;;0.10;0.10;;;14.20;99.90;;;;;;5045153;28;20033;-67
2022/07/28 05:29:28;;;;;;;0.30;0.30;;;14.30;99.90;;;;;;5034742;28;20107;-67
2022/07/28 05:31:54;;;;;;;0.00;0.00;;;14.40;99.90;;;;;;5045700;28;20051;-67
2022/07/28 05:34:19;;;;;;;0.00;0.00;;;14.50;99.90;;;;;;5035123;28;20033;-67
2022/07/28 05:36:45;;;;;;;0.00;0.00;;;14.60;99.90;;;;;;5040017;28;20131;-67
2022/07/28 05:39:10;;;;;;;0.13;0.13;;;14.60;99.90;;;;;;5046832;28;20037;-67
2022/07/28 05:41:36;;;;;;;0.28;0.28;;;14.70;99.90;;;;;;5044962;28;20540;-67
2022/07/28 05:44:02;;;;;;;0.00;0.00;;;14.70;99.90;;;;;;5039146;28;20059;-67
2022/07/28 05:46:27;;;;;;;0.10;0.10;;;14.80;99.90;;;;;;5045462;28;20044;-66
2022/07/28 05:48:53;;;;;;;0.08;0.08;;;14.80;99.90;;;;;;5030912;28;20128;-67
2022/07/28 05:51:19;;;;;;;0.10;0.10;;;14.80;99.90;;;;;;5039490;28;20118;-67
2022/07/28 05:53:44;;;;;;;0.03;0.03;;;14.80;99.90;;;;;;5048966;28;20046;-67
2022/07/28 05:56:10;;;;;;;0.10;0.10;;;14.90;99.90;;;;;;5043332;28;20045;-67
2022/07/28 05:58:35;;;;;;;0.40;0.40;;;14.90;99.90;;;;;;5044165;28;20049;-67
2022/07/28 06:01:01;;;;;;;0.00;0.00;;;15.00;99.90;;;;;;5049960;28;20040;-67
2022/07/28 06:03:29;;;;;;;0.30;0.30;;;15.10;99.90;;;;;;5033568;28;20045;-67
2022/07/28 06:05:55;;;;;;;0.10;0.10;;;15.20;99.90;;;;;;5032992;28;20042;-68
2022/07/28 06:08:23;;;;;;;0.20;0.20;;;15.30;99.90;;;;;;5047495;28;20408;-68
2022/07/28 06:11:00;;;;;;;0.00;0.00;;;15.40;99.90;;;;;;5055015;28;20052;-68
2022/07/28 06:13:26;;;;;;;0.03;0.03;;;15.50;99.90;;;;;;5042134;28;20041;-68
2022/07/28 06:15:52;;;;;;;0.10;0.10;;;15.50;99.90;;;;;;5050595;28;20052;-68
2022/07/28 06:18:19;;;;;;;0.00;0.00;;;15.60;99.90;;;;;;5043670;28;20045;-68
2022/07/28 06:20:45;;;;;;;0.30;0.30;;;15.60;99.90;;;;;;5033202;28;20090;-68
2022/07/28 06:23:11;;;;;;;0.10;0.10;;;15.70;99.90;;;;;;5041444;28;20045;-68
2022/07/28 06:25:37;;;;;;;0.10;0.10;;;15.60;99.90;;;;;;5040157;28;20087;-68
2022/07/28 06:28:02;;;;;;;0.00;0.00;;;15.70;99.90;;;;;;5040826;28;20186;-68
2022/07/28 06:30:29;;;;;;;0.25;0.25;;;15.70;99.90;;;;;;5031075;28;20038;-68
2022/07/28 06:32:55;;;;;;;0.00;0.00;;;15.80;99.90;;;;;;5030237;28;20060;-68
2022/07/28 06:35:21;;;;;;;0.85;0.85;;;15.90;99.90;;;;;;5046195;28;20084;-68
2022/07/28 06:37:48;;;;;;;0.13;0.13;;;15.90;99.90;;;;;;5050267;28;20128;-68
2022/07/28 06:40:15;;;;;;;0.00;0.00;;;16.00;99.90;;;;;;5038832;28;20053;-68
2022/07/28 06:42:42;;;;;;;0.10;0.10;;;16.00;99.90;;;;;;5032533;28;20561;-68
2022/07/28 06:45:08;;;;;;;0.08;0.08;;;16.00;99.90;;;;;;5030665;28;20116;-68
2022/07/28 06:47:34;;;;;;;0.00;0.00;;;16.00;99.90;;;;;;5030467;28;20063;-68
2022/07/28 06:50:00;;;;;;;0.10;0.10;;;16.10;99.90;;;;;;5043201;28;20124;-68
2022/07/28 06:52:26;;;;;;;16.15;0.85;;;16.10;99.90;;;;;;5047046;28;20125;-69
2022/07/28 06:54:52;;;;;;;0.10;0.10;;;16.10;99.90;;;;;;5034157;28;20100;-68
2022/07/28 06:57:19;;;;;;;0.00;0.00;;;16.10;99.90;;;;;;5041687;28;20052;-68
2022/07/28 06:59:45;;;;;;;0.10;0.10;;;16.20;99.90;;;;;;5041526;28;20057;-68
2022/07/28 07:02:11;;;;;;;0.00;0.00;;;16.20;99.90;;;;;;5045039;28;20045;-68
2022/07/28 07:04:37;;;;;;;0.10;0.10;;;16.30;99.90;;;;;;5047559;28;20569;-68
2022/07/28 07:07:03;;;;;;;0.00;0.00;;;16.30;99.90;;;;;;5044895;28;20037;-68
2022/07/28 07:09:29;;;;;;;0.10;0.10;;;16.30;99.90;;;;;;5029957;28;20092;-68
2022/07/28 07:11:55;;;;;;;0.00;0.00;;;16.30;99.90;;;;;;5039385;28;20080;-68
2022/07/28 07:14:20;;;;;;;0.05;0.05;;;16.30;99.90;;;;;;5065030;28;20526;-68
2022/07/28 07:16:46;;;;;;;0.10;0.10;;;16.40;99.90;;;;;;5042320;28;20042;-68
2022/07/28 07:19:11;;;;;;;0.10;0.10;;;16.40;99.90;;;;;;5027610;28;20053;-68
2022/07/28 07:21:37;;;;;;;0.50;0.50;;;16.50;99.90;;;;;;5029890;28;20067;-68
2022/07/28 07:24:03;;;;;;;0.00;0.00;;;16.50;99.90;;;;;;5038049;28;20049;-68
2022/07/28 07:26:28;;;;;;;0.10;0.10;;;16.50;99.90;;;;;;5042455;28;20037;-68
2022/07/28 07:28:54;;;;;;;0.10;0.10;;;16.50;99.90;;;;;;5030249;28;20057;-68
2022/07/28 07:31:19;;;;;;;0.10;0.10;;;16.50;99.90;;;;;;5029016;28;20553;-68
2022/07/28 07:33:45;;;;;;;0.10;0.10;;;16.60;99.90;;;;;;5036113;28;20412;-68
2022/07/28 07:36:11;;;;;;;0.10;0.10;;;16.60;99.90;;;;;;5028926;28;20049;-68
2022/07/28 07:38:38;;;;;;;0.10;0.10;;;16.70;99.90;;;;;;5032029;28;20254;-68
2022/07/28 07:41:04;;;;;;;0.10;0.10;;;16.70;99.90;;;;;;5031055;28;20060;-68
2022/07/28 07:43:29;;;;;;;0.05;0.05;;;16.80;99.90;;;;;;5039091;28;20045;-68
2022/07/28 07:45:55;;;;;;;0.00;0.00;;;16.80;99.90;;;;;;5041683;28;20029;-67
2022/07/28 07:48:20;;;;;;;0.00;0.00;;;16.90;99.90;;;;;;5037684;28;20037;-68
2022/07/28 07:50:46;;;;;;;0.47;0.47;;;16.90;99.90;;;;;;5033789;28;20045;-68
2022/07/28 07:53:11;;;;;;;0.10;0.10;;;16.90;99.90;;;;;;5039817;28;20055;-69
2022/07/28 07:55:37;;;;;;;0.00;0.00;;;16.90;99.90;;;;;;5036756;28;20038;-68
2022/07/28 07:58:03;;;;;;;0.08;0.08;;;16.90;99.90;;;;;;5042625;28;20114;-68
2022/07/28 08:00:29;;;;;;;0.10;0.10;;;16.90;99.90;;;;;;5044133;28;20384;-68
2022/07/28 08:02:55;;;;;;;0.00;0.00;;;17.00;99.90;;;;;;5031916;28;20068;-68
2022/07/28 08:05:21;;;;;;;0.00;0.00;;;17.00;99.90;;;;;;5028928;28;20057;-68
2022/07/28 08:07:47;;;;;;;0.10;0.10;;;17.10;99.90;;;;;;5027783;28;20049;-68
2022/07/28 08:10:12;;;;;;;0.10;0.10;;;17.20;99.90;;;;;;5037329;28;20084;-68
2022/07/28 08:12:38;;;;;;;0.10;0.10;;;17.30;99.90;;;;;;5045472;28;20041;-68
2022/07/28 08:15:04;;;;;;;0.00;0.00;;;17.40;99.90;;;;;;5027976;28;20095;-68
2022/07/28 08:17:29;;;;;;;0.00;0.00;;;17.40;99.90;;;;;;5047795;28;20052;-68
2022/07/28 08:19:55;;;;;;;0.30;0.30;;;17.40;99.90;;;;;;5046428;28;20048;-68
2022/07/28 08:22:22;;;;;;;0.00;0.00;;;17.50;99.90;;;;;;5027395;28;20072;-68
2022/07/28 08:24:47;;;;;;;0.00;0.00;;;17.60;99.90;;;;;;5045349;28;20500;-68
2022/07/28 08:27:13;;;;;;;0.17;0.17;;;17.80;99.90;;;;;;5038135;28;20048;-68
2022/07/28 08:29:38;;;;;;;0.10;0.10;;;17.90;99.90;;;;;;5034229;28;20053;-68
2022/07/28 08:32:04;;;;;;;0.00;0.00;;;18.00;99.90;;;;;;5033322;28;20048;-68
2022/07/28 08:34:30;;;;;;;0.00;0.00;;;18.10;99.90;;;;;;5046740;28;20037;-68
2022/07/28 08:36:57;;;;;;;0.00;0.00;;;18.20;99.90;;;;;;5036900;28;20084;-69
2022/07/28 08:39:23;;;;;;;0.00;0.00;;;18.10;99.90;;;;;;5028658;28;20088;-68
2022/07/28 08:42:07;;;;;;;0.10;0.10;;;18.00;99.90;;;;;;5035873;28;20495;-68
2022/07/28 08:45:13;;;;;;;0.08;0.08;;;18.10;99.90;;;;;;5036134;28;20049;-68
2022/07/28 08:47:41;;;;;;;0.00;0.00;;;18.00;99.90;;;;;;5018734;28;20049;-68
2022/07/28 08:50:09;;;;;;;0.00;0.00;;;17.90;99.90;;;;;;5042708;28;20080;-68
2022/07/28 08:52:37;;;;;;;0.00;0.00;;;17.80;99.90;;;;;;5045241;28;20128;-68
2022/07/28 08:55:06;;;;;;;0.10;0.10;;;17.80;99.90;;;;;;5039371;28;20480;-68
2022/07/28 08:57:35;;;;;;;0.10;0.10;;;17.70;99.90;;;;;;5046706;28;20052;-68
2022/07/28 09:00:01;;;;;;;0.10;0.10;;;17.70;99.90;;;;;;5025863;28;20083;-68
2022/07/28 09:02:28;;;;;;;0.00;0.00;;;17.60;99.90;;;;;;5041614;28;20452;-68
2022/07/28 09:04:54;;;;;;;0.05;0.05;;;17.60;99.90;;;;;;5039110;28;20087;-68
2022/07/28 09:07:22;;;;;;;0.20;0.20;;;17.60;99.90;;;;;;5029347;28;20053;-68
2022/07/28 09:09:48;;;;;;;0.00;0.00;;;17.60;99.90;;;;;;5028482;28;20120;-68
2022/07/28 09:12:14;;;;;;;0.08;0.08;;;17.60;99.90;;;;;;5028430;28;20103;-68
2022/07/28 09:14:40;;;;;;;0.10;0.10;;;17.60;99.90;;;;;;5027529;28;20041;-68
2022/07/28 09:17:06;;;;;;;0.10;0.10;;;17.50;99.90;;;;;;5026014;28;20858;-68
2022/07/28 09:19:32;;;;;;;0.03;0.03;;;17.40;99.90;;;;;;5026053;28;20050;-68
2022/07/28 09:21:59;;;;;;;0.00;0.00;;;17.40;99.90;;;;;;5031657;28;20117;-68
2022/07/28 09:24:34;;;;;;;0.05;0.05;;;17.40;99.90;;;;;;5045003;28;20569;-68
2022/07/28 09:27:02;;;;;;;0.00;0.00;;;17.40;99.90;;;;;;5046033;28;20044;-68
2022/07/28 09:29:28;;;;;;;0.00;0.00;;;17.40;99.90;;;;;;5048127;28;20044;-68
2022/07/28 09:31:54;;;;;;;0.10;0.10;;;17.40;99.90;;;;;;5047896;28;20408;-68
2022/07/28 09:34:20;;;;;;;0.10;0.10;;;17.40;99.90;;;;;;5044849;28;20110;-68
2022/07/28 09:36:46;;;;;;;0.13;0.13;;;17.50;99.90;;;;;;5034668;28;20064;-68
2022/07/28 09:39:30;;;;;;;0.05;0.05;;;17.50;99.90;;;;;;5026883;28;20049;-68
2022/07/28 09:41:55;;;;;;;0.00;0.00;;;17.60;99.90;;;;;;5039902;28;20046;-68
2022/07/28 09:44:22;;;;;;;0.00;0.00;;;17.70;99.90;;;;;;5025479;28;20495;-68
2022/07/28 09:46:48;;;;;;;0.10;0.10;;;17.80;99.90;;;;;;5034459;28;20044;-68
2022/07/28 09:49:14;;;;;;;0.00;0.00;;;17.70;99.90;;;;;;5045645;28;20148;-68
2022/07/28 09:51:40;;;;;;;0.10;0.10;;;17.80;99.90;;;;;;5047950;28;20182;-68
2022/07/28 09:54:09;;;;;;;0.05;0.05;;;17.80;99.90;;;;;;5043186;28;20052;-68
2022/07/28 09:56:36;;;;;;;0.10;0.10;;;17.80;99.90;;;;;;5030951;28;20057;-68
2022/07/28 09:59:02;;;;;;;0.03;0.03;;;17.90;99.90;;;;;;5027058;28;20053;-68
2022/07/28 10:01:28;;;;;;;0.00;0.00;;;17.90;99.90;;;;;;5038439;28;20069;-68
2022/07/28 10:03:56;;;;;;;0.00;0.00;;;17.90;99.90;;;;;;5028034;28;20246;-68
2022/07/28 10:06:26;;;;;;;0.00;0.00;;;17.90;99.90;;;;;;5026933;28;20719;-68
2022/07/28 10:08:54;;;;;;;0.03;0.03;;;17.90;99.90;;;;;;5037691;28;20496;-68
2022/07/28 10:11:25;;;;;;;0.05;0.05;;;17.80;99.90;;;;;;5027356;28;20068;-68
2022/07/28 10:14:01;;;;;;;0.10;0.10;;;17.90;99.90;;;;;;5035663;28;20041;-68
2022/07/28 10:16:29;;;;;;;0.10;0.10;;;18.00;99.90;;;;;;5040203;28;20041;-68
2022/07/28 10:18:56;;;;;;;0.40;0.40;;;18.00;99.90;;;;;;5037849;28;20045;-68
2022/07/28 10:21:23;;;;;;;0.30;0.30;;;18.00;99.90;;;;;;5030397;28;20128;-68
2022/07/28 10:23:54;;;;;;;0.00;0.00;;;18.00;99.90;;;;;;5036782;28;20114;-68
2022/07/28 10:26:24;;;;;;;0.10;0.10;;;17.90;99.90;;;;;;5038128;28;20033;-68
2022/07/28 10:28:52;;;;;;;0.00;0.00;;;17.80;99.90;;;;;;5043409;28;20122;-68
2022/07/28 10:31:31;;;;;;;0.10;0.10;;;17.80;99.90;;;;;;5048038;28;20124;-68
2022/07/28 10:34:00;;;;;;;0.03;0.03;;;17.80;99.90;;;;;;5037344;28;20049;-68
2022/07/28 10:36:26;;;;;;;0.00;0.00;;;17.80;99.90;;;;;;5036078;28;20045;-68
2022/07/28 10:39:00;;;;;;;0.00;0.00;;;17.90;99.90;;;;;;5030823;28;20484;-68
2022/07/28 10:41:32;;;;;;;0.00;0.00;;;17.80;99.90;;;;;;5032832;28;20460;-68
2022/07/28 10:43:58;;;;;;;0.08;0.08;;;17.80;99.90;;;;;;5043707;28;20075;-68
2022/07/28 10:46:25;;;;;;;0.10;0.10;;;17.80;99.90;;;;;;5033835;28;20049;-68
2022/07/28 10:48:51;;;;;;;0.08;0.08;;;17.90;99.90;;;;;;5049772;28;20045;-68
2022/07/28 10:51:19;;;;;;;0.00;0.00;;;17.80;99.90;;;;;;5036421;28;20041;-68
2022/07/28 10:53:53;;;;;;;0.00;0.00;;;17.80;99.90;;;;;;5041596;28;20060;-68
2022/07/28 10:56:33;;;;;;;0.00;0.00;;;17.90;99.90;;;;;;5047639;28;20091;-68
2022/07/28 10:59:36;;;;;;;0.00;0.00;;;17.90;99.90;;;;;;5032623;28;20053;-68
2022/07/28 11:02:02;;;;;;;21.90;0.43;;;18.10;99.90;;;;;;5042017;28;20044;-68
2022/07/28 11:04:50;;;;;;;0.00;0.00;;;18.10;99.90;;;;;;5046095;28;20561;-68
2022/07/28 11:07:17;;;;;;;0.03;0.03;;;18.20;99.90;;;;;;5029853;28;20077;-68
2022/07/28 11:09:46;;;;;;;0.00;0.00;;;18.30;99.90;;;;;;5059616;28;20049;-68
2022/07/28 11:12:14;;;;;;;0.00;0.00;;;18.30;99.90;;;;;;5049770;28;20709;-68
2022/07/28 11:14:41;;;;;;;0.00;0.00;;;18.40;99.90;;;;;;5034849;28;20518;-68
2022/07/28 11:17:06;;;;;;;0.52;0.22;;;18.40;99.90;;;;;;5030515;28;20042;-68
2022/07/28 11:19:44;;;;;;;0.10;0.10;;;18.50;99.90;;;;;;5030170;28;20124;-68
2022/07/28 11:24:57;;;;;;;0.00;0.00;;;18.50;99.90;;;;;;5028934;28;20390;-68
2022/07/28 11:27:40;;;;;;;0.00;0.00;;;18.50;99.90;;;;;;5032983;28;20053;-68
2022/07/28 11:30:11;;;;;;;0.00;0.00;;;18.60;99.90;;;;;;5046593;28;20056;-68
2022/07/28 11:32:49;;;;;;;0.00;0.00;;;18.60;99.90;;;;;;5036168;28;20049;-68
2022/07/28 11:35:22;;;;;;;0.10;0.10;;;18.60;99.90;;;;;;5029382;28;20064;-68
2022/07/28 11:38:00;;;;;;;;;;;18.50;99.90;;;;;;5033285;28;20758;-68
2022/07/28 11:40:29;;;;;;;0.00;0.00;;;18.50;99.90;;;;;;5029537;28;20283;-68
2022/07/28 11:43:21;;;;;;;0.00;0.00;;;18.50;99.90;;;;;;5045369;28;20388;-68
2022/07/28 11:45:51;;;;;;;1.25;0.77;;;18.60;99.90;;;;;;5038648;28;20049;-69
2022/07/28 11:48:21;;;;;;;0.10;0.10;;;18.60;99.90;;;;;;5030965;28;20049;-69
2022/07/28 11:51:01;;;;;;;0.00;0.00;;;18.70;99.90;;;;;;5029759;28;20431;-68
2022/07/28 11:53:38;;;;;;;0.00;0.00;;;18.80;99.90;;;;;;5039158;28;20134;-69
2022/07/28 11:56:09;;;;;;;0.00;0.00;;;18.80;99.90;;;;;;5039255;28;20072;-68
2022/07/28 11:58:35;;;;;;;0.00;0.00;;;18.80;99.90;;;;;;5048431;28;20053;-69
2022/07/28 12:01:14;;;;;;;0.03;0.03;;;18.90;99.90;;;;;;5042429;28;20044;-68
2022/07/28 12:03:44;;;;;;;1.08;0.35;;;19.00;99.90;;;;;;5029147;28;20091;-68
2022/07/28 12:06:12;;;;;;;0.65;0.50;;;19.00;99.90;;;;;;5035986;28;20408;-68
2022/07/28 12:08:58;;;;;;;0.70;0.20;;;19.10;99.90;;;;;;5048328;28;20048;-69
2022/07/28 12:11:35;;;;;;;0.00;0.00;;;19.10;99.90;;;;;;5030370;28;20496;-68
2022/07/28 12:14:05;;;;;;;0.00;0.00;;;19.10;99.90;;;;;;5027341;28;20114;-69
2022/07/28 12:16:33;;;;;;;0.00;0.00;;;19.10;99.90;;;;;;5028762;28;20050;-68
2022/07/28 12:19:00;;;;;;;0.20;0.20;;;19.10;99.90;;;;;;5037224;28;20063;-68
2022/07/28 12:21:45;;;;;;;0.25;0.25;;;19.20;99.90;;;;;;5042271;28;20488;-68
2022/07/28 12:24:32;;;;;;;0.00;0.00;;;19.60;99.90;;;;;;5034880;28;20050;-68
2022/07/28 12:26:59;;;;;;;0.65;0.65;;;19.70;99.90;;;;;;5026709;28;20441;-68
2022/07/28 12:29:30;;;;;;;0.00;0.00;;;19.70;99.90;;;;;;5037483;28;20127;-68
2022/07/28 12:32:08;;;;;;;0.00;0.00;;;19.80;99.90;;;;;;5028077;28;20056;-68
2022/07/28 12:34:35;;;;;;;0.00;0.00;;;20.10;99.90;;;;;;5030923;28;20510;-68
2022/07/28 12:37:08;;;;;;;0.17;0.17;;;20.40;99.90;;;;;;5036455;28;20052;-68
2022/07/28 12:39:37;;;;;;;;;;;20.40;99.90;;;;;;5029008;28;20133;-68
2022/07/28 12:42:08;;;;;;;0.00;0.00;;;20.60;99.90;;;;;;5034411;28;20035;-68
2022/07/28 12:44:47;;;;;;;0.00;0.00;;;20.80;99.90;;;;;;5040269;28;20508;-68
2022/07/28 12:47:16;;;;;;;0.00;0.00;;;20.70;99.90;;;;;;5037844;28;20091;-68
2022/07/28 12:49:43;;;;;;;0.00;0.00;;;20.60;99.90;;;;;;5045188;28;20041;-68
2022/07/28 12:52:19;;;;;;;0.00;0.00;;;20.50;99.90;;;;;;5040011;28;20041;-68
2022/07/28 12:54:45;;;;;;;0.20;0.20;;;20.30;99.90;;;;;;5028391;28;20045;-68
2022/07/28 12:57:11;;;;;;;6.80;0.70;;;20.10;99.90;;;;;;5040976;28;20060;-68
2022/07/28 12:59:37;;;;;;;0.00;0.00;;;20.00;99.90;;;;;;5038701;28;20485;-68
2022/07/28 13:02:06;;;;;;;0.00;0.00;;;20.00;99.90;;;;;;5029574;28;20397;-68